AKL22 EHLE-EHDR

Flight info

Callsign AKL22
Flight time N/A
Altitude 3000
Route EHDR
Aircraft C172/L-SFG/C

Departure

Time 2026-04-20 16:54
Airport Lelystad Airport (EHLE)

Arrival

Time N/A
Airport EHDR
Time Latitude Longitude Altitude Speed Heading
2026-04-20 16:50 52.45235 5.51775 -10 ft 0 kts 138°
2026-04-20 16:52 52.45233 5.51776 -10 ft 2 kts 186°
2026-04-20 16:52 52.45243 5.51761 -10 ft 5 kts 326°
2026-04-20 16:52 52.45275 5.51757 -10 ft 9 kts 226°
2026-04-20 16:53 52.45148 5.51525 -10 ft 50 kts 228°
2026-04-20 16:53 52.44881 5.51082 -10 ft 56 kts 227°
2026-04-20 16:53 52.44630 5.50619 -10 ft 44 kts 227°
2026-04-20 16:53 52.44656 5.50326 -9 ft 30 kts 339°
2026-04-20 16:54 52.44849 5.50603 -9 ft 61 kts 47°
2026-04-20 16:54 52.45230 5.51287 58 ft 92 kts 46°
2026-04-20 16:54 52.45690 5.52061 288 ft 98 kts 41°
2026-04-20 16:54 52.46237 5.52737 598 ft 94 kts 33°
2026-04-20 16:55 52.46815 5.53259 874 ft 104 kts 25°
2026-04-20 16:55 52.47619 5.53868 760 ft 145 kts 25°
2026-04-20 16:55 52.48592 5.54600 728 ft 159 kts 25°
2026-04-20 16:55 52.49625 5.55369 684 ft 167 kts 24°
2026-04-20 16:56 52.50688 5.56170 682 ft 169 kts 24°
2026-04-20 16:56 52.51760 5.56983 684 ft 170 kts 25°
2026-04-20 16:56 52.52837 5.57794 689 ft 169 kts 25°
2026-04-20 16:56 52.53910 5.58598 690 ft 169 kts 26°
2026-04-20 16:57 52.54967 5.59388 692 ft 170 kts 25°
2026-04-20 16:57 52.56056 5.60196 687 ft 173 kts 25°
2026-04-20 16:57 52.57152 5.60998 692 ft 172 kts 25°
2026-04-20 16:57 52.58247 5.61798 691 ft 172 kts 24°
2026-04-20 16:58 52.59346 5.62598 687 ft 173 kts 25°
2026-04-20 16:58 52.60458 5.63406 682 ft 175 kts 25°
2026-04-20 16:58 52.61564 5.64187 682 ft 172 kts 24°
2026-04-20 16:58 52.62664 5.64981 682 ft 173 kts 24°
2026-04-20 16:59 52.63765 5.65770 685 ft 171 kts 26°
2026-04-20 16:59 52.64857 5.66562 683 ft 171 kts 25°
2026-04-20 16:59 52.65950 5.67346 682 ft 171 kts 25°
2026-04-20 16:59 52.67028 5.68136 681 ft 171 kts 26°
2026-04-20 17:00 52.69245 5.69741 684 ft 174 kts 25°
2026-04-20 17:00 52.70342 5.70534 682 ft 174 kts 26°
2026-04-20 17:00 52.71466 5.71344 682 ft 174 kts 24°
2026-04-20 17:01 52.72575 5.72135 689 ft 172 kts 25°
2026-04-20 17:01 52.73657 5.72913 688 ft 172 kts 23°
2026-04-20 17:01 52.74761 5.73683 683 ft 173 kts 24°
2026-04-20 17:01 52.75868 5.74440 683 ft 171 kts 24°
2026-04-20 17:02 52.76967 5.75189 689 ft 170 kts 24°
2026-04-20 17:02 52.78062 5.75964 687 ft 172 kts 24°
2026-04-20 17:02 52.79171 5.76722 684 ft 172 kts 24°
2026-04-20 17:02 52.80263 5.77478 687 ft 174 kts 23°
2026-04-20 17:03 52.81386 5.78223 692 ft 172 kts 22°
2026-04-20 17:03 52.82486 5.78980 695 ft 171 kts 24°
2026-04-20 17:03 52.83584 5.79729 693 ft 172 kts 23°
2026-04-20 17:03 52.84707 5.80489 691 ft 174 kts 24°
2026-04-20 17:04 52.85823 5.81248 692 ft 172 kts 24°
2026-04-20 17:04 52.86928 5.81999 685 ft 171 kts 24°
2026-04-20 17:04 52.88030 5.82741 679 ft 169 kts 24°
2026-04-20 17:04 52.89122 5.83492 685 ft 170 kts 24°
2026-04-20 17:05 52.90222 5.84234 688 ft 172 kts 24°
2026-04-20 17:05 52.91320 5.84993 684 ft 170 kts 25°
2026-04-20 17:05 52.92427 5.85751 690 ft 173 kts 24°
2026-04-20 17:05 52.93530 5.86497 689 ft 174 kts 24°
2026-04-20 17:06 52.94641 5.87247 695 ft 173 kts 25°
2026-04-20 17:06 52.95756 5.88011 691 ft 173 kts 23°
2026-04-20 17:06 52.96873 5.88765 694 ft 173 kts 23°
2026-04-20 17:06 52.97995 5.89513 693 ft 174 kts 23°
2026-04-20 17:07 52.99122 5.90263 689 ft 174 kts 23°
2026-04-20 17:07 53.00243 5.91007 694 ft 172 kts 23°
2026-04-20 17:07 53.01333 5.91796 684 ft 170 kts 26°
2026-04-20 17:07 53.02432 5.92567 689 ft 172 kts 23°
2026-04-20 17:08 53.03549 5.93316 692 ft 172 kts 24°
2026-04-20 17:08 53.04635 5.94055 692 ft 170 kts 23°
2026-04-20 17:08 53.05734 5.94799 695 ft 170 kts 23°
2026-04-20 17:08 53.06836 5.95541 689 ft 170 kts 23°
2026-04-20 17:09 53.07940 5.96274 692 ft 171 kts 24°
2026-04-20 17:09 53.09051 5.97011 691 ft 172 kts 22°
2026-04-20 17:09 53.09968 5.98171 711 ft 169 kts 55°
2026-04-20 17:09 53.10415 6.00008 585 ft 174 kts 70°
2026-04-20 17:10 53.10614 6.02029 482 ft 179 kts 81°
2026-04-20 17:10 53.10710 6.04079 542 ft 170 kts 85°
2026-04-20 17:10 53.10776 6.05902 563 ft 142 kts 73°
2026-04-20 17:10 53.10963 6.07366 534 ft 118 kts 70°
2026-04-20 17:11 53.11206 6.08772 514 ft 137 kts 73°
2026-04-20 17:11 53.11428 6.10264 350 ft 117 kts 78°
2026-04-20 17:11 53.11551 6.11303 307 ft 90 kts 79°
2026-04-20 17:11 53.11614 6.12556 452 ft 118 kts 82°
2026-04-20 17:12 53.11518 6.14084 526 ft 146 kts 90°
2026-04-20 17:12 53.11674 6.15632 673 ft 130 kts 47°
2026-04-20 17:12 53.12401 6.15487 524 ft 138 kts 297°
2026-04-20 17:12 53.12400 6.13880 409 ft 136 kts 274°
2026-04-20 17:13 53.12576 6.12386 391 ft 130 kts 282°
2026-04-20 17:13 53.12539 6.10928 352 ft 125 kts 261°
2026-04-20 17:13 53.11990 6.10226 281 ft 109 kts 141°
2026-04-20 17:13 53.11761 6.11515 172 ft 126 kts 92°
2026-04-20 17:14 53.11819 6.12903 25 ft 113 kts 75°
2026-04-20 17:14 53.11945 6.13798 19 ft 28 kts 101°
2026-04-20 17:14 53.11950 6.13748 22 ft 11 kts 255°
2026-04-20 17:14 53.11965 6.13584 24 ft 0 kts 174°
2026-04-20 17:15 53.11950 6.13587 23 ft 0 kts 174°
2026-04-20 17:20 53.11918 6.13556 23 ft 13 kts 260°
2026-04-20 17:21 53.11881 6.13323 24 ft 43 kts 259°
2026-04-20 17:21 53.11762 6.12523 62 ft 93 kts 263°
2026-04-20 17:21 53.11653 6.11378 343 ft 106 kts 275°
2026-04-20 17:21 53.11652 6.10088 634 ft 122 kts 280°
2026-04-20 17:22 53.11669 6.08590 884 ft 140 kts 278°
2026-04-20 17:22 53.11721 6.06892 1133 ft 152 kts 279°
2026-04-20 17:22 53.11789 6.05110 1349 ft 166 kts 281°
2026-04-20 17:22 53.11879 6.03149 1569 ft 177 kts 279°
2026-04-20 17:23 53.11951 6.01073 1775 ft 182 kts 278°
2026-04-20 17:23 53.12027 5.98899 1853 ft 191 kts 277°
2026-04-20 17:23 53.12046 5.96701 2037 ft 193 kts 272°
2026-04-20 17:23 53.11962 5.94391 1903 ft 206 kts 270°
2026-04-20 17:24 53.11867 5.91978 1774 ft 211 kts 270°
2026-04-20 17:24 53.11775 5.89522 1648 ft 213 kts 270°
2026-04-20 17:24 53.11693 5.87053 1515 ft 214 kts 271°
2026-04-20 17:24 53.11610 5.84599 1388 ft 215 kts 270°
2026-04-20 17:25 53.11527 5.82084 1280 ft 214 kts 271°
2026-04-20 17:25 53.11450 5.79630 1222 ft 211 kts 271°
2026-04-20 17:25 53.11387 5.77246 1191 ft 207 kts 272°
2026-04-20 17:25 53.11349 5.74895 1323 ft 200 kts 272°
2026-04-20 17:26 53.11316 5.72602 1433 ft 197 kts 271°
2026-04-20 17:26 53.11273 5.70313 1445 ft 199 kts 272°
2026-04-20 17:26 53.11236 5.68028 1501 ft 197 kts 272°
2026-04-20 17:26 53.11200 5.65735 1514 ft 199 kts 271°
2026-04-20 17:27 53.11144 5.63392 1458 ft 203 kts 269°
2026-04-20 17:27 53.11040 5.61062 1490 ft 201 kts 269°
2026-04-20 17:27 53.10919 5.58735 1458 ft 203 kts 267°
2026-04-20 17:27 53.10780 5.56434 1491 ft 201 kts 266°
2026-04-20 17:28 53.10631 5.54159 1620 ft 195 kts 266°
2026-04-20 17:28 53.10488 5.51910 1721 ft 195 kts 266°
2026-04-20 17:28 53.10325 5.49657 1776 ft 199 kts 266°
2026-04-20 17:28 53.10161 5.47371 1879 ft 197 kts 265°
2026-04-20 17:29 53.09984 5.45105 1935 ft 198 kts 265°
2026-04-20 17:29 53.09784 5.42824 1970 ft 200 kts 263°
2026-04-20 17:29 53.09561 5.40548 2048 ft 199 kts 264°
2026-04-20 17:29 53.09350 5.38265 2129 ft 200 kts 263°
2026-04-20 17:30 53.09116 5.36014 2277 ft 196 kts 262°
2026-04-20 17:30 53.08976 5.33727 2288 ft 201 kts 270°
2026-04-20 17:30 53.08981 5.31387 2402 ft 203 kts 274°
2026-04-20 17:30 53.09020 5.29027 2486 ft 205 kts 275°
2026-04-20 17:31 53.09053 5.26627 2346 ft 214 kts 272°
2026-04-20 17:31 53.09011 5.24148 2370 ft 214 kts 273°
2026-04-20 17:31 53.09076 5.21679 2438 ft 213 kts 276°
2026-04-20 17:31 53.09168 5.19233 2539 ft 210 kts 277°
2026-04-20 17:32 53.09259 5.16808 2553 ft 209 kts 277°
2026-04-20 17:32 53.09343 5.14386 2454 ft 211 kts 275°
2026-04-20 17:32 53.09421 5.11956 2306 ft 211 kts 278°
2026-04-20 17:32 53.09627 5.09545 2241 ft 210 kts 284°
2026-04-20 17:33 53.09886 5.07173 2184 ft 208 kts 284°
2026-04-20 17:33 53.10106 5.04859 1990 ft 194 kts 283°
2026-04-20 17:33 53.10362 5.02706 1523 ft 187 kts 295°
2026-04-20 17:33 53.10817 5.00734 1260 ft 178 kts 298°
2026-04-20 17:34 53.11241 4.98860 1187 ft 166 kts 297°
2026-04-20 17:34 53.11623 4.97019 1132 ft 172 kts 296°
2026-04-20 17:34 53.12005 4.95112 1187 ft 180 kts 294°
2026-04-20 17:34 53.12340 4.92963 1015 ft 197 kts 288°
2026-04-20 17:35 53.12552 4.90702 1104 ft 198 kts 278°
2026-04-20 17:35 53.12570 4.88506 1028 ft 165 kts 282°
2026-04-20 17:35 53.12705 4.86849 861 ft 114 kts 282°
2026-04-20 17:35 53.12606 4.85597 709 ft 112 kts 245°
2026-04-20 17:36 53.12245 4.84388 470 ft 119 kts 247°
2026-04-20 17:36 53.11805 4.83327 442 ft 112 kts 224°
2026-04-20 17:36 53.11227 4.82728 496 ft 88 kts 165°
2026-04-20 17:36 53.11050 4.83373 336 ft 76 kts 46°
2026-04-20 17:37 53.11496 4.83831 250 ft 74 kts 37°
2026-04-20 17:37 53.11728 4.84226 225 ft 72 kts 56°
2026-04-20 17:37 53.12207 4.84652 255 ft 77 kts 325°
2026-04-20 17:37 53.12002 4.83722 69 ft 101 kts 223°
2026-04-20 17:38 53.11643 4.83238 8 ft 93 kts 213°
2026-04-20 17:38 53.11297 4.82790 5 ft 19 kts 222°
2026-04-20 17:38 53.11304 4.82642 6 ft 18 kts 310°
2026-04-20 17:38 53.11379 4.82518 2 ft 11 kts 25°
2026-04-20 17:39 53.11483 4.82636 6 ft 27 kts 34°
2026-04-20 17:39 53.11608 4.82783 6 ft 12 kts 21°
2026-04-20 17:39 53.11677 4.82748 6 ft 10 kts 294°
2026-04-20 17:39 53.11716 4.82681 6 ft 6 kts 331°
2026-04-20 17:40 53.11709 4.82677 6 ft 0 kts 106°
2026-04-20 17:42 53.11731 4.82807 7 ft 21 kts 55°
2026-04-20 17:42 53.11738 4.83021 7 ft 22 kts 90°
2026-04-20 17:42 53.11705 4.83253 7 ft 15 kts 145°
2026-04-20 17:43 53.11651 4.83244 8 ft 0 kts 218°
2026-04-20 17:43 53.11568 4.83150 9 ft 39 kts 213°
2026-04-20 17:43 53.11203 4.82709 10 ft 88 kts 218°
2026-04-20 17:43 53.10642 4.82013 167 ft 108 kts 210°
2026-04-20 17:44 53.09971 4.81405 467 ft 111 kts 199°
2026-04-20 17:44 53.09229 4.80968 719 ft 116 kts 191°
2026-04-20 17:44 53.08426 4.80622 942 ft 125 kts 184°
2026-04-20 17:44 53.07540 4.80383 1090 ft 136 kts 178°
2026-04-20 17:45 53.06575 4.80310 1259 ft 139 kts 172°
2026-04-20 17:45 53.05623 4.80265 1534 ft 134 kts 173°
2026-04-20 17:45 53.04654 4.80269 1601 ft 147 kts 171°
2026-04-20 17:45 53.03605 4.80213 1639 ft 155 kts 176°
2026-04-20 17:46 53.02434 4.80055 1636 ft 180 kts 180°
2026-04-20 17:46 53.01210 4.79827 1778 ft 172 kts 181°
2026-04-20 17:46 53.00011 4.79599 1782 ft 170 kts 180°
2026-04-20 17:46 52.98869 4.79361 1866 ft 169 kts 181°
2026-04-20 17:47 52.97670 4.79160 1809 ft 173 kts 178°
2026-04-20 17:47 52.96471 4.79012 1594 ft 173 kts 183°
2026-04-20 17:47 52.95425 4.78253 1479 ft 156 kts 233°
2026-04-20 17:47 52.95430 4.76687 1135 ft 144 kts 327°
2026-04-20 17:48 52.96218 4.76951 698 ft 130 kts 66°
2026-04-20 17:48 52.96107 4.78432 532 ft 138 kts 112°
2026-04-20 17:48 52.95397 4.79471 543 ft 133 kts 142°
2026-04-20 17:48 52.94555 4.79587 521 ft 112 kts 178°
2026-04-20 17:49 52.93842 4.79307 302 ft 102 kts 187°
2026-04-20 17:49 52.93272 4.78747 115 ft 90 kts 265°
2026-04-20 17:49 52.93345 4.78624 649 ft 106 kts 50°
2026-04-20 17:49 52.93839 4.79187 451 ft 95 kts
2026-04-20 17:50 52.93862 4.79467 394 ft 99 kts 189°
2026-04-20 17:50 52.93160 4.78910 128 ft 115 kts 199°
2026-04-20 17:50 52.92499 4.78228 11 ft 111 kts 204°
2026-04-20 17:50 52.91996 4.77673 6 ft 46 kts 218°
2026-04-20 17:51 52.91920 4.77658 6 ft 6 kts 54°
2026-04-20 17:51 52.91958 4.77757 6 ft 23 kts 58°
2026-04-20 17:51 52.92145 4.77997 5 ft 41 kts 37°
2026-04-20 17:51 52.92332 4.78202 5 ft 21 kts 29°
2026-04-20 17:52 52.92434 4.78312 5 ft 13 kts 37°
2026-04-20 17:52 52.92429 4.78384 5 ft 9 kts 74°
2026-04-20 17:52 52.92446 4.78474 5 ft 6 kts 72°
2026-04-20 17:52 52.92491 4.78510 5 ft 9 kts 70°
2026-04-20 17:53 52.92533 4.78573 5 ft 9 kts 329°
2026-04-20 17:53 52.92531 4.78518 5 ft 0 kts 249°